sensor_id;sensor_type;location;lat;lon;timestamp;P1;durP1;ratioP1;P2;durP2;ratioP2
23716;SDS011;22094;52.130;5.598;2023-06-22T00:01:57;10.48;;;9.40;;
23716;SDS011;22094;52.130;5.598;2023-06-22T00:04:23;10.43;;;9.00;;
23716;SDS011;22094;52.130;5.598;2023-06-22T00:06:49;9.73;;;8.73;;
23716;SDS011;22094;52.130;5.598;2023-06-22T00:09:14;11.02;;;9.32;;
23716;SDS011;22094;52.130;5.598;2023-06-22T00:11:40;10.18;;;8.23;;
23716;SDS011;22094;52.130;5.598;2023-06-22T00:14:05;10.00;;;9.00;;
23716;SDS011;22094;52.130;5.598;2023-06-22T00:16:31;11.15;;;8.98;;
23716;SDS011;22094;52.130;5.598;2023-06-22T00:18:57;10.23;;;8.98;;
23716;SDS011;22094;52.130;5.598;2023-06-22T00:21:29;10.30;;;9.23;;
23716;SDS011;22094;52.130;5.598;2023-06-22T00:23:54;13.70;;;9.30;;
23716;SDS011;22094;52.130;5.598;2023-06-22T00:26:20;12.77;;;9.80;;
23716;SDS011;22094;52.130;5.598;2023-06-22T00:28:46;14.27;;;9.77;;
23716;SDS011;22094;52.130;5.598;2023-06-22T00:31:12;11.50;;;10.30;;
23716;SDS011;22094;52.130;5.598;2023-06-22T00:33:38;11.40;;;10.20;;
23716;SDS011;22094;52.130;5.598;2023-06-22T00:36:04;11.93;;;10.73;;
23716;SDS011;22094;52.130;5.598;2023-06-22T00:38:30;11.23;;;10.13;;
23716;SDS011;22094;52.130;5.598;2023-06-22T00:40:56;13.00;;;10.30;;
23716;SDS011;22094;52.130;5.598;2023-06-22T00:43:21;11.35;;;10.13;;
23716;SDS011;22094;52.130;5.598;2023-06-22T00:45:47;11.40;;;10.10;;
23716;SDS011;22094;52.130;5.598;2023-06-22T00:48:13;11.88;;;10.60;;
23716;SDS011;22094;52.130;5.598;2023-06-22T00:50:39;12.43;;;10.48;;
23716;SDS011;22094;52.130;5.598;2023-06-22T00:53:06;12.80;;;10.93;;
23716;SDS011;22094;52.130;5.598;2023-06-22T00:55:43;13.18;;;11.25;;
23716;SDS011;22094;52.130;5.598;2023-06-22T00:58:10;14.95;;;11.75;;
23716;SDS011;22094;52.130;5.598;2023-06-22T01:00:37;12.55;;;11.25;;
23716;SDS011;22094;52.130;5.598;2023-06-22T01:03:05;13.65;;;11.85;;
23716;SDS011;22094;52.130;5.598;2023-06-22T01:05:33;14.10;;;11.52;;
23716;SDS011;22094;52.130;5.598;2023-06-22T01:10:45;12.40;;;11.10;;
23716;SDS011;22094;52.130;5.598;2023-06-22T01:15:55;12.15;;;10.98;;
23716;SDS011;22094;52.130;5.598;2023-06-22T01:18:26;14.98;;;11.40;;
23716;SDS011;22094;52.130;5.598;2023-06-22T01:20:55;14.48;;;11.35;;
23716;SDS011;22094;52.130;5.598;2023-06-22T01:23:37;14.38;;;11.95;;
23716;SDS011;22094;52.130;5.598;2023-06-22T01:29:14;14.52;;;11.68;;
23716;SDS011;22094;52.130;5.598;2023-06-22T01:31:40;14.05;;;11.95;;
23716;SDS011;22094;52.130;5.598;2023-06-22T01:34:08;14.40;;;11.50;;
23716;SDS011;22094;52.130;5.598;2023-06-22T01:36:36;12.52;;;10.70;;
23716;SDS011;22094;52.130;5.598;2023-06-22T01:39:04;11.70;;;10.60;;
23716;SDS011;22094;52.130;5.598;2023-06-22T01:41:38;15.80;;;10.57;;
23716;SDS011;22094;52.130;5.598;2023-06-22T01:44:05;13.40;;;11.30;;
23716;SDS011;22094;52.130;5.598;2023-06-22T01:46:33;14.55;;;10.82;;
23716;SDS011;22094;52.130;5.598;2023-06-22T01:49:00;12.52;;;11.32;;
23716;SDS011;22094;52.130;5.598;2023-06-22T01:51:30;14.27;;;11.77;;
23716;SDS011;22094;52.130;5.598;2023-06-22T01:53:56;12.95;;;11.48;;
23716;SDS011;22094;52.130;5.598;2023-06-22T01:56:22;13.20;;;11.80;;
23716;SDS011;22094;52.130;5.598;2023-06-22T01:58:54;15.45;;;12.13;;
23716;SDS011;22094;52.130;5.598;2023-06-22T02:01:30;13.50;;;11.98;;
23716;SDS011;22094;52.130;5.598;2023-06-22T02:04:06;15.45;;;12.60;;
23716;SDS011;22094;52.130;5.598;2023-06-22T02:06:39;15.45;;;12.27;;
23716;SDS011;22094;52.130;5.598;2023-06-22T02:09:08;13.25;;;11.80;;
23716;SDS011;22094;52.130;5.598;2023-06-22T02:11:37;15.50;;;12.63;;
23716;SDS011;22094;52.130;5.598;2023-06-22T02:14:10;15.32;;;13.07;;
23716;SDS011;22094;52.130;5.598;2023-06-22T02:16:36;14.70;;;12.43;;
23716;SDS011;22094;52.130;5.598;2023-06-22T02:19:02;14.48;;;12.82;;
23716;SDS011;22094;52.130;5.598;2023-06-22T02:21:28;15.40;;;12.95;;
23716;SDS011;22094;52.130;5.598;2023-06-22T02:23:55;18.83;;;13.93;;
23716;SDS011;22094;52.130;5.598;2023-06-22T02:26:21;16.10;;;13.75;;
23716;SDS011;22094;52.130;5.598;2023-06-22T02:28:48;17.45;;;14.52;;
23716;SDS011;22094;52.130;5.598;2023-06-22T02:31:14;15.68;;;13.30;;
23716;SDS011;22094;52.130;5.598;2023-06-22T02:33:39;17.98;;;15.68;;
23716;SDS011;22094;52.130;5.598;2023-06-22T02:36:05;21.85;;;15.07;;
23716;SDS011;22094;52.130;5.598;2023-06-22T02:38:34;18.35;;;14.45;;
23716;SDS011;22094;52.130;5.598;2023-06-22T02:41:01;18.08;;;15.07;;
23716;SDS011;22094;52.130;5.598;2023-06-22T02:43:27;20.48;;;14.88;;
23716;SDS011;22094;52.130;5.598;2023-06-22T02:45:53;17.70;;;15.07;;
23716;SDS011;22094;52.130;5.598;2023-06-22T02:48:18;17.60;;;15.43;;
23716;SDS011;22094;52.130;5.598;2023-06-22T02:50:44;17.73;;;15.60;;
23716;SDS011;22094;52.130;5.598;2023-06-22T02:53:10;20.77;;;15.55;;
23716;SDS011;22094;52.130;5.598;2023-06-22T02:55:35;20.05;;;16.10;;
23716;SDS011;22094;52.130;5.598;2023-06-22T02:58:01;19.30;;;15.15;;
23716;SDS011;22094;52.130;5.598;2023-06-22T03:00:29;23.02;;;15.98;;
23716;SDS011;22094;52.130;5.598;2023-06-22T03:02:56;17.35;;;15.45;;
23716;SDS011;22094;52.130;5.598;2023-06-22T03:05:22;20.60;;;16.02;;
23716;SDS011;22094;52.130;5.598;2023-06-22T03:07:48;19.92;;;15.55;;
23716;SDS011;22094;52.130;5.598;2023-06-22T03:10:14;18.05;;;15.07;;
23716;SDS011;22094;52.130;5.598;2023-06-22T03:12:40;19.88;;;16.38;;
23716;SDS011;22094;52.130;5.598;2023-06-22T03:15:07;19.00;;;15.75;;
23716;SDS011;22094;52.130;5.598;2023-06-22T03:17:37;20.77;;;16.30;;
23716;SDS011;22094;52.130;5.598;2023-06-22T03:20:05;19.77;;;15.98;;
23716;SDS011;22094;52.130;5.598;2023-06-22T03:22:37;25.13;;;17.33;;
23716;SDS011;22094;52.130;5.598;2023-06-22T03:25:04;22.35;;;17.55;;
23716;SDS011;22094;52.130;5.598;2023-06-22T03:27:34;26.85;;;18.13;;
23716;SDS011;22094;52.130;5.598;2023-06-22T03:30:01;24.48;;;18.40;;
23716;SDS011;22094;52.130;5.598;2023-06-22T03:32:27;24.20;;;19.63;;
23716;SDS011;22094;52.130;5.598;2023-06-22T03:34:53;27.17;;;19.63;;
23716;SDS011;22094;52.130;5.598;2023-06-22T03:37:18;28.27;;;19.80;;
23716;SDS011;22094;52.130;5.598;2023-06-22T03:39:44;26.92;;;20.40;;
23716;SDS011;22094;52.130;5.598;2023-06-22T03:42:09;32.60;;;22.20;;
23716;SDS011;22094;52.130;5.598;2023-06-22T03:44:35;26.90;;;20.40;;
23716;SDS011;22094;52.130;5.598;2023-06-22T03:47:02;28.63;;;21.58;;
23716;SDS011;22094;52.130;5.598;2023-06-22T03:49:28;29.02;;;21.35;;
23716;SDS011;22094;52.130;5.598;2023-06-22T03:51:54;31.05;;;21.48;;
23716;SDS011;22094;52.130;5.598;2023-06-22T03:54:19;26.73;;;20.83;;
23716;SDS011;22094;52.130;5.598;2023-06-22T03:56:45;31.85;;;22.55;;
23716;SDS011;22094;52.130;5.598;2023-06-22T03:59:10;30.98;;;21.63;;
23716;SDS011;22094;52.130;5.598;2023-06-22T04:01:36;33.80;;;22.27;;
23716;SDS011;22094;52.130;5.598;2023-06-22T04:04:02;28.95;;;21.52;;
23716;SDS011;22094;52.130;5.598;2023-06-22T04:06:27;43.17;;;25.38;;
23716;SDS011;22094;52.130;5.598;2023-06-22T04:08:53;37.90;;;24.02;;
23716;SDS011;22094;52.130;5.598;2023-06-22T04:11:19;38.53;;;25.60;;
23716;SDS011;22094;52.130;5.598;2023-06-22T04:13:44;39.22;;;26.27;;
23716;SDS011;22094;52.130;5.598;2023-06-22T04:16:10;35.35;;;25.25;;
23716;SDS011;22094;52.130;5.598;2023-06-22T04:18:36;34.13;;;24.17;;
23716;SDS011;22094;52.130;5.598;2023-06-22T04:21:02;37.17;;;24.30;;
23716;SDS011;22094;52.130;5.598;2023-06-22T04:23:27;33.53;;;23.42;;
23716;SDS011;22094;52.130;5.598;2023-06-22T04:25:53;29.27;;;21.23;;
23716;SDS011;22094;52.130;5.598;2023-06-22T04:28:21;27.77;;;20.98;;
23716;SDS011;22094;52.130;5.598;2023-06-22T04:30:47;27.02;;;21.15;;
23716;SDS011;22094;52.130;5.598;2023-06-22T04:33:15;25.83;;;20.58;;
23716;SDS011;22094;52.130;5.598;2023-06-22T04:35:41;24.70;;;19.83;;
23716;SDS011;22094;52.130;5.598;2023-06-22T04:38:11;27.70;;;21.00;;
23716;SDS011;22094;52.130;5.598;2023-06-22T04:40:38;25.92;;;20.88;;
23716;SDS011;22094;52.130;5.598;2023-06-22T04:43:04;27.33;;;22.40;;
23716;SDS011;22094;52.130;5.598;2023-06-22T04:45:31;27.67;;;22.30;;
23716;SDS011;22094;52.130;5.598;2023-06-22T04:48:02;28.70;;;22.33;;
23716;SDS011;22094;52.130;5.598;2023-06-22T04:50:29;28.30;;;21.15;;
23716;SDS011;22094;52.130;5.598;2023-06-22T04:52:54;34.55;;;23.27;;
23716;SDS011;22094;52.130;5.598;2023-06-22T04:55:20;28.17;;;23.17;;
23716;SDS011;22094;52.130;5.598;2023-06-22T04:57:48;26.73;;;22.15;;
23716;SDS011;22094;52.130;5.598;2023-06-22T05:00:15;29.25;;;22.08;;
23716;SDS011;22094;52.130;5.598;2023-06-22T05:02:45;29.42;;;23.90;;
23716;SDS011;22094;52.130;5.598;2023-06-22T05:05:12;33.15;;;24.50;;
23716;SDS011;22094;52.130;5.598;2023-06-22T05:07:49;27.02;;;23.60;;
23716;SDS011;22094;52.130;5.598;2023-06-22T05:10:18;28.80;;;23.73;;
23716;SDS011;22094;52.130;5.598;2023-06-22T05:12:44;30.98;;;24.77;;
23716;SDS011;22094;52.130;5.598;2023-06-22T05:15:10;28.48;;;24.17;;
23716;SDS011;22094;52.130;5.598;2023-06-22T05:17:36;28.33;;;24.20;;
23716;SDS011;22094;52.130;5.598;2023-06-22T05:20:08;31.05;;;25.52;;
23716;SDS011;22094;52.130;5.598;2023-06-22T05:22:37;34.88;;;25.50;;
23716;SDS011;22094;52.130;5.598;2023-06-22T05:25:08;30.13;;;26.00;;
23716;SDS011;22094;52.130;5.598;2023-06-22T05:27:34;31.45;;;26.30;;
23716;SDS011;22094;52.130;5.598;2023-06-22T05:30:05;36.60;;;27.80;;
23716;SDS011;22094;52.130;5.598;2023-06-22T05:32:34;37.53;;;27.63;;
23716;SDS011;22094;52.130;5.598;2023-06-22T05:35:01;33.58;;;27.42;;
23716;SDS011;22094;52.130;5.598;2023-06-22T05:37:28;32.88;;;27.55;;
23716;SDS011;22094;52.130;5.598;2023-06-22T05:39:54;29.55;;;25.17;;
23716;SDS011;22094;52.130;5.598;2023-06-22T05:42:20;28.63;;;25.15;;
23716;SDS011;22094;52.130;5.598;2023-06-22T05:44:46;30.17;;;25.38;;
23716;SDS011;22094;52.130;5.598;2023-06-22T05:47:12;32.65;;;25.40;;
23716;SDS011;22094;52.130;5.598;2023-06-22T05:49:38;27.48;;;24.33;;
23716;SDS011;22094;52.130;5.598;2023-06-22T05:52:04;31.67;;;24.23;;
23716;SDS011;22094;52.130;5.598;2023-06-22T05:54:30;28.77;;;23.02;;
23716;SDS011;22094;52.130;5.598;2023-06-22T05:56:56;26.70;;;23.55;;
23716;SDS011;22094;52.130;5.598;2023-06-22T05:59:21;25.40;;;22.73;;
23716;SDS011;22094;52.130;5.598;2023-06-22T06:01:47;28.15;;;24.98;;
23716;SDS011;22094;52.130;5.598;2023-06-22T06:04:17;26.00;;;21.73;;
23716;SDS011;22094;52.130;5.598;2023-06-22T06:06:42;27.75;;;23.27;;
23716;SDS011;22094;52.130;5.598;2023-06-22T06:09:08;25.42;;;21.73;;
23716;SDS011;22094;52.130;5.598;2023-06-22T06:11:34;26.45;;;21.33;;
23716;SDS011;22094;52.130;5.598;2023-06-22T06:13:59;30.40;;;21.77;;
23716;SDS011;22094;52.130;5.598;2023-06-22T06:16:25;28.85;;;23.02;;
23716;SDS011;22094;52.130;5.598;2023-06-22T06:18:51;27.25;;;22.25;;
23716;SDS011;22094;52.130;5.598;2023-06-22T06:21:19;26.67;;;21.95;;
23716;SDS011;22094;52.130;5.598;2023-06-22T06:23:45;25.00;;;22.23;;
23716;SDS011;22094;52.130;5.598;2023-06-22T06:26:12;26.20;;;23.40;;
23716;SDS011;22094;52.130;5.598;2023-06-22T06:28:40;27.92;;;22.83;;
23716;SDS011;22094;52.130;5.598;2023-06-22T06:31:06;27.55;;;21.52;;
23716;SDS011;22094;52.130;5.598;2023-06-22T06:33:33;25.40;;;20.98;;
23716;SDS011;22094;52.130;5.598;2023-06-22T06:35:59;24.88;;;20.85;;
23716;SDS011;22094;52.130;5.598;2023-06-22T06:38:28;23.40;;;20.90;;
23716;SDS011;22094;52.130;5.598;2023-06-22T06:40:54;24.90;;;20.92;;
23716;SDS011;22094;52.130;5.598;2023-06-22T06:43:19;24.20;;;20.13;;
23716;SDS011;22094;52.130;5.598;2023-06-22T06:45:45;24.80;;;20.17;;
23716;SDS011;22094;52.130;5.598;2023-06-22T06:48:11;23.95;;;19.60;;
23716;SDS011;22094;52.130;5.598;2023-06-22T06:50:36;21.73;;;18.88;;
23716;SDS011;22094;52.130;5.598;2023-06-22T06:53:02;22.25;;;18.77;;
23716;SDS011;22094;52.130;5.598;2023-06-22T06:55:28;21.08;;;18.42;;
23716;SDS011;22094;52.130;5.598;2023-06-22T06:57:57;19.67;;;17.58;;
23716;SDS011;22094;52.130;5.598;2023-06-22T07:00:24;20.23;;;18.08;;
23716;SDS011;22094;52.130;5.598;2023-06-22T07:02:51;20.58;;;17.52;;
23716;SDS011;22094;52.130;5.598;2023-06-22T07:05:17;19.65;;;17.42;;
23716;SDS011;22094;52.130;5.598;2023-06-22T07:07:42;20.88;;;17.35;;
23716;SDS011;22094;52.130;5.598;2023-06-22T07:10:08;17.33;;;15.25;;
23716;SDS011;22094;52.130;5.598;2023-06-22T07:12:34;16.75;;;14.82;;
23716;SDS011;22094;52.130;5.598;2023-06-22T07:15:04;18.23;;;15.23;;
23716;SDS011;22094;52.130;5.598;2023-06-22T07:17:32;19.75;;;15.50;;
23716;SDS011;22094;52.130;5.598;2023-06-22T07:19:58;17.55;;;14.43;;
23716;SDS011;22094;52.130;5.598;2023-06-22T07:22:24;15.32;;;13.70;;
23716;SDS011;22094;52.130;5.598;2023-06-22T07:24:50;15.88;;;14.02;;
23716;SDS011;22094;52.130;5.598;2023-06-22T07:27:16;13.93;;;12.38;;
23716;SDS011;22094;52.130;5.598;2023-06-22T07:29:44;14.85;;;12.10;;
23716;SDS011;22094;52.130;5.598;2023-06-22T07:32:10;14.38;;;12.50;;
23716;SDS011;22094;52.130;5.598;2023-06-22T07:34:36;13.05;;;11.50;;
23716;SDS011;22094;52.130;5.598;2023-06-22T07:37:03;14.02;;;12.05;;
23716;SDS011;22094;52.130;5.598;2023-06-22T07:39:29;15.77;;;12.05;;
23716;SDS011;22094;52.130;5.598;2023-06-22T07:41:55;14.95;;;12.25;;
23716;SDS011;22094;52.130;5.598;2023-06-22T07:44:21;18.65;;;12.23;;
23716;SDS011;22094;52.130;5.598;2023-06-22T07:46:47;17.75;;;13.05;;
23716;SDS011;22094;52.130;5.598;2023-06-22T07:49:12;15.45;;;12.50;;
23716;SDS011;22094;52.130;5.598;2023-06-22T07:51:38;13.07;;;11.60;;
23716;SDS011;22094;52.130;5.598;2023-06-22T07:54:04;12.52;;;11.23;;
23716;SDS011;22094;52.130;5.598;2023-06-22T07:56:30;17.77;;;13.05;;
23716;SDS011;22094;52.130;5.598;2023-06-22T07:58:57;15.75;;;12.18;;
23716;SDS011;22094;52.130;5.598;2023-06-22T08:01:24;12.88;;;10.60;;
23716;SDS011;22094;52.130;5.598;2023-06-22T08:03:49;15.43;;;12.05;;
23716;SDS011;22094;52.130;5.598;2023-06-22T08:06:15;16.23;;;11.07;;
23716;SDS011;22094;52.130;5.598;2023-06-22T08:08:41;12.55;;;10.55;;
23716;SDS011;22094;52.130;5.598;2023-06-22T08:11:08;13.00;;;10.30;;
23716;SDS011;22094;52.130;5.598;2023-06-22T08:13:34;11.27;;;9.05;;
23716;SDS011;22094;52.130;5.598;2023-06-22T08:16:00;13.70;;;10.43;;
23716;SDS011;22094;52.130;5.598;2023-06-22T08:18:26;11.50;;;10.30;;
23716;SDS011;22094;52.130;5.598;2023-06-22T08:20:51;11.93;;;10.35;;
23716;SDS011;22094;52.130;5.598;2023-06-22T08:23:17;11.50;;;10.30;;
23716;SDS011;22094;52.130;5.598;2023-06-22T08:25:43;12.85;;;10.00;;
23716;SDS011;22094;52.130;5.598;2023-06-22T08:28:09;12.25;;;8.85;;
23716;SDS011;22094;52.130;5.598;2023-06-22T08:30:35;11.32;;;10.00;;
23716;SDS011;22094;52.130;5.598;2023-06-22T08:33:01;11.65;;;8.45;;
23716;SDS011;22094;52.130;5.598;2023-06-22T08:35:27;8.88;;;7.82;;
23716;SDS011;22094;52.130;5.598;2023-06-22T08:37:54;11.15;;;8.40;;
23716;SDS011;22094;52.130;5.598;2023-06-22T08:40:22;9.73;;;7.45;;
23716;SDS011;22094;52.130;5.598;2023-06-22T08:42:48;9.13;;;7.80;;
23716;SDS011;22094;52.130;5.598;2023-06-22T08:45:14;6.93;;;6.22;;
23716;SDS011;22094;52.130;5.598;2023-06-22T08:47:40;6.55;;;5.95;;
23716;SDS011;22094;52.130;5.598;2023-06-22T08:50:07;8.85;;;6.40;;
23716;SDS011;22094;52.130;5.598;2023-06-22T08:52:36;9.25;;;7.50;;
23716;SDS011;22094;52.130;5.598;2023-06-22T08:55:03;8.15;;;6.78;;
23716;SDS011;22094;52.130;5.598;2023-06-22T08:57:29;8.50;;;6.97;;
23716;SDS011;22094;52.130;5.598;2023-06-22T08:59:55;7.40;;;6.70;;
23716;SDS011;22094;52.130;5.598;2023-06-22T09:02:23;8.45;;;6.65;;
23716;SDS011;22094;52.130;5.598;2023-06-22T09:04:49;11.65;;;6.45;;
23716;SDS011;22094;52.130;5.598;2023-06-22T09:07:24;7.28;;;5.82;;
23716;SDS011;22094;52.130;5.598;2023-06-22T09:09:50;6.85;;;4.63;;
23716;SDS011;22094;52.130;5.598;2023-06-22T09:12:17;6.93;;;5.10;;
23716;SDS011;22094;52.130;5.598;2023-06-22T09:14:45;5.45;;;4.95;;
23716;SDS011;22094;52.130;5.598;2023-06-22T09:17:11;6.97;;;6.07;;
23716;SDS011;22094;52.130;5.598;2023-06-22T09:19:37;5.93;;;4.68;;
23716;SDS011;22094;52.130;5.598;2023-06-22T09:22:03;6.97;;;4.82;;
23716;SDS011;22094;52.130;5.598;2023-06-22T09:24:31;7.25;;;5.82;;
23716;SDS011;22094;52.130;5.598;2023-06-22T09:26:56;8.05;;;5.80;;
23716;SDS011;22094;52.130;5.598;2023-06-22T09:29:22;9.15;;;5.32;;
23716;SDS011;22094;52.130;5.598;2023-06-22T09:31:47;6.07;;;5.32;;
23716;SDS011;22094;52.130;5.598;2023-06-22T09:34:13;5.85;;;5.25;;
23716;SDS011;22094;52.130;5.598;2023-06-22T09:36:40;5.43;;;4.75;;
23716;SDS011;22094;52.130;5.598;2023-06-22T09:39:06;6.35;;;5.53;;
23716;SDS011;22094;52.130;5.598;2023-06-22T09:41:32;6.20;;;5.40;;
23716;SDS011;22094;52.130;5.598;2023-06-22T09:43:57;7.85;;;5.40;;
23716;SDS011;22094;52.130;5.598;2023-06-22T09:46:23;7.55;;;5.03;;
23716;SDS011;22094;52.130;5.598;2023-06-22T09:48:51;7.00;;;6.30;;
23716;SDS011;22094;52.130;5.598;2023-06-22T09:51:17;6.63;;;5.93;;
23716;SDS011;22094;52.130;5.598;2023-06-22T09:53:44;7.55;;;5.72;;
23716;SDS011;22094;52.130;5.598;2023-06-22T09:56:10;7.10;;;5.70;;
23716;SDS011;22094;52.130;5.598;2023-06-22T09:58:42;6.95;;;5.88;;
23716;SDS011;22094;52.130;5.598;2023-06-22T10:01:08;8.30;;;6.15;;
23716;SDS011;22094;52.130;5.598;2023-06-22T10:03:35;8.82;;;6.00;;
23716;SDS011;22094;52.130;5.598;2023-06-22T10:06:01;6.22;;;5.22;;
23716;SDS011;22094;52.130;5.598;2023-06-22T10:08:27;7.53;;;6.50;;
23716;SDS011;22094;52.130;5.598;2023-06-22T10:10:53;7.13;;;6.07;;
23716;SDS011;22094;52.130;5.598;2023-06-22T10:13:18;10.50;;;7.07;;
23716;SDS011;22094;52.130;5.598;2023-06-22T10:15:44;9.05;;;7.22;;
23716;SDS011;22094;52.130;5.598;2023-06-22T10:18:16;7.55;;;6.75;;
23716;SDS011;22094;52.130;5.598;2023-06-22T10:20:42;8.85;;;6.43;;
23716;SDS011;22094;52.130;5.598;2023-06-22T10:23:08;8.95;;;6.78;;
23716;SDS011;22094;52.130;5.598;2023-06-22T10:25:34;10.00;;;6.95;;
23716;SDS011;22094;52.130;5.598;2023-06-22T10:27:59;9.07;;;7.22;;
23716;SDS011;22094;52.130;5.598;2023-06-22T10:30:25;8.38;;;6.80;;
23716;SDS011;22094;52.130;5.598;2023-06-22T10:32:50;8.15;;;7.07;;
23716;SDS011;22094;52.130;5.598;2023-06-22T10:35:16;8.85;;;7.35;;
23716;SDS011;22094;52.130;5.598;2023-06-22T10:37:42;7.88;;;6.30;;
23716;SDS011;22094;52.130;5.598;2023-06-22T10:40:08;7.55;;;6.70;;
23716;SDS011;22094;52.130;5.598;2023-06-22T10:42:35;8.32;;;7.35;;
23716;SDS011;22094;52.130;5.598;2023-06-22T10:45:00;9.52;;;7.60;;
23716;SDS011;22094;52.130;5.598;2023-06-22T10:47:26;9.38;;;7.15;;
23716;SDS011;22094;52.130;5.598;2023-06-22T10:49:51;7.63;;;6.30;;
23716;SDS011;22094;52.130;5.598;2023-06-22T10:52:17;10.35;;;6.68;;
23716;SDS011;22094;52.130;5.598;2023-06-22T10:54:43;6.78;;;6.07;;
23716;SDS011;22094;52.130;5.598;2023-06-22T10:57:09;8.02;;;6.28;;
23716;SDS011;22094;52.130;5.598;2023-06-22T10:59:35;10.18;;;6.38;;
23716;SDS011;22094;52.130;5.598;2023-06-22T11:02:00;8.18;;;6.43;;
23716;SDS011;22094;52.130;5.598;2023-06-22T11:04:27;10.45;;;7.25;;
23716;SDS011;22094;52.130;5.598;2023-06-22T11:06:52;8.35;;;6.60;;
23716;SDS011;22094;52.130;5.598;2023-06-22T11:09:18;8.40;;;6.45;;
23716;SDS011;22094;52.130;5.598;2023-06-22T11:11:49;7.28;;;6.40;;
23716;SDS011;22094;52.130;5.598;2023-06-22T11:14:16;7.28;;;6.53;;
23716;SDS011;22094;52.130;5.598;2023-06-22T11:16:41;9.88;;;6.50;;
23716;SDS011;22094;52.130;5.598;2023-06-22T11:19:07;7.75;;;6.95;;
23716;SDS011;22094;52.130;5.598;2023-06-22T11:21:33;9.00;;;6.85;;
23716;SDS011;22094;52.130;5.598;2023-06-22T11:23:59;7.65;;;6.57;;
23716;SDS011;22094;52.130;5.598;2023-06-22T11:26:25;8.52;;;7.30;;
23716;SDS011;22094;52.130;5.598;2023-06-22T11:28:53;11.15;;;7.70;;
23716;SDS011;22094;52.130;5.598;2023-06-22T11:31:19;7.53;;;6.72;;
23716;SDS011;22094;52.130;5.598;2023-06-22T11:33:44;12.50;;;7.30;;
23716;SDS011;22094;52.130;5.598;2023-06-22T11:36:11;9.60;;;7.30;;
23716;SDS011;22094;52.130;5.598;2023-06-22T11:38:37;8.60;;;7.40;;
23716;SDS011;22094;52.130;5.598;2023-06-22T11:41:05;9.13;;;7.57;;
23716;SDS011;22094;52.130;5.598;2023-06-22T11:43:31;10.48;;;7.93;;
23716;SDS011;22094;52.130;5.598;2023-06-22T11:45:57;10.75;;;8.38;;
23716;SDS011;22094;52.130;5.598;2023-06-22T11:48:26;9.52;;;8.55;;
23716;SDS011;22094;52.130;5.598;2023-06-22T11:50:51;8.63;;;7.60;;
23716;SDS011;22094;52.130;5.598;2023-06-22T11:53:17;9.88;;;7.95;;
23716;SDS011;22094;52.130;5.598;2023-06-22T11:55:43;11.85;;;8.38;;
23716;SDS011;22094;52.130;5.598;2023-06-22T11:58:09;13.40;;;9.45;;
23716;SDS011;22094;52.130;5.598;2023-06-22T12:00:35;13.02;;;10.18;;
23716;SDS011;22094;52.130;5.598;2023-06-22T12:03:00;14.65;;;9.77;;
23716;SDS011;22094;52.130;5.598;2023-06-22T12:05:26;12.13;;;10.35;;
23716;SDS011;22094;52.130;5.598;2023-06-22T12:07:55;11.88;;;10.38;;
23716;SDS011;22094;52.130;5.598;2023-06-22T12:10:21;11.07;;;9.15;;
23716;SDS011;22094;52.130;5.598;2023-06-22T12:12:48;10.30;;;9.20;;
23716;SDS011;22094;52.130;5.598;2023-06-22T12:15:13;18.38;;;9.90;;
23716;SDS011;22094;52.130;5.598;2023-06-22T12:17:39;13.20;;;9.60;;
23716;SDS011;22094;52.130;5.598;2023-06-22T12:20:06;11.80;;;10.60;;
23716;SDS011;22094;52.130;5.598;2023-06-22T12:22:32;12.00;;;10.80;;
23716;SDS011;22094;52.130;5.598;2023-06-22T12:24:58;15.57;;;13.05;;
23716;SDS011;22094;52.130;5.598;2023-06-22T12:27:24;15.30;;;13.32;;
23716;SDS011;22094;52.130;5.598;2023-06-22T12:29:50;16.38;;;14.68;;
23716;SDS011;22094;52.130;5.598;2023-06-22T12:32:16;15.40;;;13.80;;
23716;SDS011;22094;52.130;5.598;2023-06-22T12:34:42;18.10;;;16.15;;
23716;SDS011;22094;52.130;5.598;2023-06-22T12:37:08;20.80;;;15.98;;
23716;SDS011;22094;52.130;5.598;2023-06-22T12:39:34;18.33;;;16.45;;
23716;SDS011;22094;52.130;5.598;2023-06-22T12:42:00;18.88;;;16.95;;
23716;SDS011;22094;52.130;5.598;2023-06-22T12:44:26;23.30;;;17.20;;
23716;SDS011;22094;52.130;5.598;2023-06-22T12:46:51;21.98;;;17.80;;
23716;SDS011;22094;52.130;5.598;2023-06-22T12:49:17;18.15;;;16.20;;
23716;SDS011;22094;52.130;5.598;2023-06-22T12:51:43;21.75;;;19.45;;
23716;SDS011;22094;52.130;5.598;2023-06-22T12:54:10;21.70;;;19.42;;
23716;SDS011;22094;52.130;5.598;2023-06-22T12:56:37;22.05;;;19.70;;
23716;SDS011;22094;52.130;5.598;2023-06-22T12:59:03;21.75;;;18.33;;
23716;SDS011;22094;52.130;5.598;2023-06-22T13:01:30;21.40;;;18.73;;
23716;SDS011;22094;52.130;5.598;2023-06-22T13:03:56;19.50;;;16.60;;
23716;SDS011;22094;52.130;5.598;2023-06-22T13:06:25;18.73;;;16.25;;
23716;SDS011;22094;52.130;5.598;2023-06-22T13:08:51;21.25;;;17.15;;
23716;SDS011;22094;52.130;5.598;2023-06-22T13:11:17;24.55;;;18.55;;
23716;SDS011;22094;52.130;5.598;2023-06-22T13:13:44;19.23;;;17.23;;
23716;SDS011;22094;52.130;5.598;2023-06-22T13:16:11;21.25;;;19.05;;
23716;SDS011;22094;52.130;5.598;2023-06-22T13:18:36;24.40;;;21.48;;
23716;SDS011;22094;52.130;5.598;2023-06-22T13:21:03;20.95;;;18.60;;
23716;SDS011;22094;52.130;5.598;2023-06-22T13:23:29;22.08;;;19.83;;
23716;SDS011;22094;52.130;5.598;2023-06-22T13:25:54;25.48;;;20.85;;
23716;SDS011;22094;52.130;5.598;2023-06-22T13:28:20;25.42;;;22.10;;
23716;SDS011;22094;52.130;5.598;2023-06-22T13:30:46;25.65;;;22.85;;
23716;SDS011;22094;52.130;5.598;2023-06-22T13:33:15;28.60;;;23.33;;
23716;SDS011;22094;52.130;5.598;2023-06-22T13:35:41;33.63;;;22.73;;
23716;SDS011;22094;52.130;5.598;2023-06-22T13:38:08;33.22;;;24.65;;
23716;SDS011;22094;52.130;5.598;2023-06-22T13:40:34;31.83;;;23.65;;
23716;SDS011;22094;52.130;5.598;2023-06-22T13:43:00;27.48;;;23.27;;
23716;SDS011;22094;52.130;5.598;2023-06-22T13:45:26;26.60;;;23.38;;
23716;SDS011;22094;52.130;5.598;2023-06-22T13:47:52;29.65;;;24.10;;
23716;SDS011;22094;52.130;5.598;2023-06-22T13:50:18;34.42;;;25.17;;
23716;SDS011;22094;52.130;5.598;2023-06-22T13:52:44;28.02;;;25.08;;
23716;SDS011;22094;52.130;5.598;2023-06-22T13:55:10;27.80;;;24.67;;
23716;SDS011;22094;52.130;5.598;2023-06-22T13:57:36;29.65;;;25.48;;
23716;SDS011;22094;52.130;5.598;2023-06-22T14:00:08;29.38;;;25.08;;
23716;SDS011;22094;52.130;5.598;2023-06-22T14:02:34;31.40;;;24.23;;
23716;SDS011;22094;52.130;5.598;2023-06-22T14:05:23;27.35;;;24.55;;
23716;SDS011;22094;52.130;5.598;2023-06-22T14:07:56;26.85;;;23.88;;
23716;SDS011;22094;52.130;5.598;2023-06-22T14:10:22;32.38;;;25.23;;
23716;SDS011;22094;52.130;5.598;2023-06-22T14:12:48;27.60;;;23.08;;
23716;SDS011;22094;52.130;5.598;2023-06-22T14:15:13;23.25;;;20.70;;
23716;SDS011;22094;52.130;5.598;2023-06-22T14:17:42;26.65;;;21.92;;
23716;SDS011;22094;52.130;5.598;2023-06-22T14:20:08;28.33;;;22.20;;
23716;SDS011;22094;52.130;5.598;2023-06-22T14:22:34;22.77;;;20.35;;
23716;SDS011;22094;52.130;5.598;2023-06-22T14:25:01;24.23;;;21.55;;
23716;SDS011;22094;52.130;5.598;2023-06-22T14:27:26;25.50;;;22.10;;
23716;SDS011;22094;52.130;5.598;2023-06-22T14:29:52;24.17;;;21.65;;
23716;SDS011;22094;52.130;5.598;2023-06-22T14:32:18;25.00;;;21.35;;
23716;SDS011;22094;52.130;5.598;2023-06-22T14:34:44;23.25;;;20.83;;